• Join FlightAware (Why Join?)
  • Login
  • US Flag 
08:11PM EDT


 

Airport Tracker/Info


-or-


 

Live Flight TrackerFlight Track Log ✈ EJM90 ✈ 14-Oct-2013 ✈ KAVL - KORL

Flight Track Log - Related Links

Times and Time Zones

All times are in EDT time to prevent confusion due to time zone crossing. See the EJM90 flight status page for this flight to view local times or setup timezone preferences in your user account.

Time Position Orientation Groundspeed Altitude Reporting Facility
EDT Latitude Longitude Course Direction KTS MPH feet Rate Location/Type
06:58PM 35.0764 -82.3625 173° South 344 396 20,500  Level FlightAware ADS-B
06:58PM 35.0285 -82.3555 159° South 346 398 22,200 2,160 Climbing FlightAware ADS-B
06:59PM 34.9331 -82.3415 173° South 397 457 23,600 1,740 Climbing FlightAware ADS-B
07:00PM 34.8708 -82.3322 173° South 411 473 24,800 1,980 Climbing FlightAware ADS-B
07:00PM 34.8085 -82.3227 173° South 426 490 25,800 1,980 Climbing FlightAware ADS-B
07:01PM 34.7407 -82.3127 173° South 436 502 27,000 2,100 Climbing FlightAware ADS-B
07:02PM 34.6748 -82.3029 173° South 443 510 28,200 2,100 Climbing FlightAware ADS-B
07:02PM 34.5764 -82.2884 173° South 449 517 29,900 1,920 Climbing FlightAware ADS-B
07:03PM 34.4661 -82.2725 173° South 447 514 31,800 1,320 Climbing Atlanta Center
07:04PM 34.3322 -82.2528 173° South 465 535 32,700 1,080 Climbing Atlanta Center
07:05PM 34.1964 -82.2331 173° South 481 554 34,000 840 Climbing Atlanta Center
07:06PM 34.0542 -82.2111 173° South 503 579 34,400 1,440 Climbing Atlanta Center
07:07PM 33.9097 -82.1864 172° South 516 594 36,900 2,040 Climbing Atlanta Center
07:08PM 33.7528 -82.1650 174° South 522 601 38,500 1,500 Climbing Atlanta Center
07:09PM 33.6086 -82.1481 174° South 522 601 40,000 720 Climbing Atlanta Center
07:10PM 33.4683 -82.1339 175° South 522 601 40,000  Level Atlanta Center
07:11PM 33.3222 -82.1172 175° South 522 601 40,000  Level Atlanta Center
07:12PM 33.1778 -82.1006 174° South 522 601 40,000  Level Atlanta Center
07:13PM 33.0314 -82.0839 175° South 522 601 40,000  Level Atlanta Center
07:14PM 32.8872 -82.0672 174° South 522 601 40,000  Level Atlanta Center
07:16PM 32.6564 -82.0414 175° South 540 621 40,000  Level Jacksonville Center
07:17PM 32.5122 -82.0253 175° South 540 621 40,000  Level Jacksonville Center
07:18PM 32.3661 -82.0169 177° South 533 613 40,000  Level Jacksonville Center
07:19PM 32.2242 -82.0403 188° South 526 605 40,000 -780 Level Jacksonville Center
07:20PM 32.0969 -82.0636 189° South 520 598 38,500 -1,920 Descending Jacksonville Center
07:21PM 31.9428 -82.0919 189° South 520 598 36,300 -1,260 Descending Jacksonville Center
07:22PM 31.8133 -82.1150 189° South 526 605 36,000 -180 Descending Jacksonville Center
07:23PM 31.6550 -82.1481 190° South 526 605 36,000  Level Jacksonville Center
07:24PM 31.5111 -82.1736 189° South 526 605 36,000  Level Jacksonville Center
07:25PM 31.3672 -82.2064 191° South 526 605 36,000  Level Jacksonville Center
07:26PM 31.2211 -82.2294 188° South 527 606 36,000  Level Jacksonville Center
07:27PM 31.0772 -82.2569 189° South 527 606 36,000  Level Jacksonville Center
07:28PM 30.9353 -82.2847 190° South 522 601 36,000 -300 Level Jacksonville Center
07:29PM 30.7892 -82.3072 188° South 522 601 35,500 -1,080 Descending Jacksonville Center
07:30PM 30.6472 -82.3275 187° South 527 606 33,900 -1,740 Descending Jacksonville Center
07:31PM 30.4989 -82.3067 173° South 522 601 32,100 -1,800 Descending Jacksonville Center
07:32PM 30.3550 -82.2931 175° South 522 601 30,400 -1,680 Descending Jacksonville Center
07:33PM 30.2086 -82.2772 175° South 530 610 28,800 -1,680 Descending Jacksonville Center
07:34PM 30.0625 -82.2614 175° South 530 610 27,100 -900 Descending Jacksonville Center
07:35PM 29.9308 -82.2525 177° South 530 610 27,000 -660 Descending Jacksonville Center
07:36PM 29.7889 -82.2319 173° South 530 610 25,900 -2,100 Descending Jacksonville Center
07:41PM 29.0438 -81.9846 173° South 442 509 13,600 -2,160 Descending FlightAware ADS-B (EGNC / CAX)
07:43PM 28.8852 -81.9001 155° Southeast 352 405 10,900 -1,620 Descending FlightAware ADS-B (EGNC / CAX)
07:44PM 28.8241 -81.8589 149° Southeast 310 357 9,900 -1,320 Descending FlightAware ADS-B (EGNC / CAX)
07:44PM 28.7910 -81.8378 151° Southeast 294 338 9,200 -1,500 Descending FlightAware ADS-B (EGNC / CAX)
07:45PM 28.7695 -81.8244 151° Southeast 289 333 8,700 -1,500 Descending FlightAware ADS-B (EGNC / CAX)
07:45PM 28.7209 -81.7966 153° Southeast 287 330 7,800 -1,500 Descending FlightAware ADS-B (EGNC / CAX)
07:46PM 28.6934 -81.7802 152° Southeast 282 325 7,200 -1,320 Descending FlightAware ADS-B (EGNC / CAX)
07:46PM 28.6634 -81.7609 150° Southeast 280 322 6,700 -1,320 Descending FlightAware ADS-B (EGNC / CAX)
07:46PM 28.6466 -81.7487 148° Southeast 276 318 6,300 -1,740 Descending FlightAware ADS-B (EGNC / CAX)
07:47PM 28.6292 -81.7294 136° Southeast 274 315 5,700 -1,680 Descending FlightAware ADS-B (EGNC / CAX)
07:47PM 28.6050 -81.7010 134° Southeast 273 314 4,900 -1,680 Descending FlightAware ADS-B (EGNC / CAX)
07:48PM 28.5827 -81.6755 135° Southeast 274 315 4,300 -1,740 Descending FlightAware ADS-B (EGNC / CAX)
07:48PM 28.5664 -81.6573 136° Southeast 272 313 3,800 -1,740 Descending FlightAware ADS-B (EGNC / CAX)
07:48PM 28.5453 -81.6342 136° Southeast 264 304 2,700 -1,260 Descending FlightAware ADS-B (EGNC / CAX)
07:49PM 28.5000 -81.5833 136° Southeast 258 297 2,100 -360 Descending Orlando TRACON
07:50PM 28.4833 -81.5167 106° East 175 201 2,100  Level Orlando TRACON
07:51PM 28.5000 -81.4667 69° East 165 190 2,100 -240 Level Orlando TRACON
07:52PM 28.5167 -81.4333 60° Northeast 130 150 1,700 -480 Descending Orlando TRACON
07:53PM 28.5167 -81.4000 90° East 110 127 1,200 -600 Descending Orlando TRACON
07:54PM 28.5333 -81.3667 60° Northeast 115 132 600 -600 Descending Orlando TRACON
07:56PM 28.5455 -81.3329 24° Northeast  Level Estimated
08:03PM 28.5455 -81.3329 24° Northeast  Level Estimated
08:04PM 28.5455 -81.3329 24° Northeast  Level Estimated
08:05PM 28.5455 -81.3329 24° Northeast  Level Estimated
08:06PM 28.5455 -81.3329 24° Northeast  Level Estimated